Chaska, MN (55318)

5:57 AM CDT on July 23, 2016 (GMT -0500)
Clover Ridge | | Change Station

Elev 909 ft 44.81 °N, 93.64 °W | Updated 1 minute ago

Partly Cloudy
Partly Cloudy
72.5 °F
Feels Like 72 °F
N
0.0
Wind Variable Wind from ESE

Today
High -- | Low -- °F
--% Chance of Precip.
Yesterday
High -- | Low -- °F
Precip. -- in
Pressure 29.91 in
Visibility 10.0 miles
Clouds Few 4700 ft
Heat Index 72 °F
Dew Point 67 °F
Humidity 84%
Rainfall 0.00 in
Snow Depth Not available.
5:51 AM 8:50 PM
Waning Gibbous, 86% visible
METAR KFCM 231053Z 08006KT 10SM FEW047 24/21 A2994 RMK AO2 SLP129 T02440206
Pressure 29.91 in
Visibility 10.0 miles
Clouds Few 4700 ft
Heat Index 72 °F
Dew Point 67 °F
Humidity 84%
Rainfall 0.00 in
Snow Depth Not available.
5:51 AM 8:50 PM
Waning Gibbous, 86% visible
METAR KFCM 231053Z 08006KT 10SM FEW047 24/21 A2994 RMK AO2 SLP129 T02440206

10-Day Weather Forecast

Almanac

Astronomy

Jul. 23, 2016 Rise Set
Actual Time
Civil Twilight
Nautical Twilight
Astronomical Twilight
Moon
Length of Visible Light
Length of Day
Tomorrow will be .
, % of the Moon is Illuminated

Today's Extremes

State Highs State Lows

Community

WunderPhotos

Upload Photos

1,926,793 photos uploaded!

WunderBlog® & News

Nearby

Air Quality

  Air Quality AQ Index Pollutant
Not available.

Snow Depth

Station Depth Elevation

Earthquake Activity

City Distance Mag. Time & Date
Minimum magnitude displayed is 2.5.

Coastal Water Temperatures

Place Temperature

Stations

Nearby Weather Stations

Station Location Temp. Windchill Dew Point Humidity Wind Precip. Elev Updated Type
                   

Watches & Warnings

There are currently no watches in effect.